Time;durP1;ratioP1;P1;durP2;ratioP2;P2;SDS_P1;SDS_P2;PMS_P1;PMS_P2;Temp;Humidity;BMP_temperature;BMP_pressure;BME280_temperature;BME280_humidity;BME280_pressure;Samples;Min_cycle;Max_cycle;Signal;HPM_P1;HPM_P2
2023/02/01 01:55:01;;;;;;;28.40;12.30;;;;;;;-2.77;100.00;98775.73;104604;1304;544875;-67
2023/02/01 01:57:33;;;;;;;22.70;11.90;;;;;;;-2.60;100.00;98781.05;106602;1285;26192;-66
2023/02/01 02:00:10;;;;;;;21.40;10.90;;;;;;;-2.39;100.00;98773.25;109502;1288;22237;-67
2023/02/01 02:03:05;;;;;;;21.00;9.90;;;;;;;-2.17;100.00;98769.36;109507;1289;22438;-67
2023/02/01 02:05:34;;;;;;;19.30;9.40;;;;;;;-2.00;100.00;98765.00;108959;1288;22540;-67
2023/02/01 02:08:03;;;;;;;16.30;8.10;;;;;;;-1.84;100.00;98763.94;106420;1286;249309;-67
2023/02/01 02:13:18;;;;;;;19.80;9.70;;;;;;;-1.56;100.00;98764.93;106701;1286;22518;-67
2023/02/01 02:16:16;;;;;;;16.10;10.20;;;;;;;-1.45;100.00;98759.66;106671;1286;24230;-67
2023/02/01 02:19:07;;;;;;;17.30;9.20;;;;;;;-1.38;100.00;98757.92;106296;1287;22736;-67
2023/02/01 02:21:41;;;;;;;17.00;8.50;;;;;;;-1.35;100.00;98755.77;106776;1286;24249;-67
2023/02/01 02:24:29;;;;;;;18.90;9.20;;;;;;;-1.23;100.00;98756.67;106773;1282;23975;-66
2023/02/01 02:27:24;;;;;;;19.80;8.60;;;;;;;-1.13;100.00;98750.86;106831;1279;25374;-67
2023/02/01 02:30:09;;;;;;;16.00;8.20;;;;;;;-1.09;100.00;98751.40;106593;1287;25552;-68
2023/02/01 02:33:02;;;;;;;16.40;7.40;;;;;;;-1.06;100.00;98750.86;107200;1286;25269;-67
2023/02/01 02:35:53;;;;;;;15.00;6.40;;;;;;;-0.93;100.00;98751.11;106630;1281;22529;-67
2023/02/01 02:38:41;;;;;;;11.90;5.90;;;;;;;-0.89;100.00;98759.33;106619;1286;25388;-68
2023/02/01 02:47:48;;;;;;;15.10;6.20;;;;;;;-0.68;100.00;98758.85;106637;1286;25440;-67
2023/02/01 03:04:40;;;;;;;15.60;6.80;;;;;;;-0.50;100.00;98746.09;106691;1286;22541;-67
2023/02/01 03:07:35;;;;;;;18.90;7.80;;;;;;;-0.54;100.00;98746.84;106546;1285;24225;-67
2023/02/01 03:10:05;;;;;;;15.30;6.80;;;;;;;-0.53;100.00;98752.02;109562;1284;22267;-68
2023/02/01 03:15:57;;;;;;;17.60;6.90;;;;;;;-0.41;100.00;98759.02;109575;1286;22403;-68
2023/02/01 03:18:34;;;;;;;17.40;6.90;;;;;;;-0.37;100.00;98758.65;109666;1286;22391;-68
2023/02/01 03:21:06;;;;;;;15.80;6.50;;;;;;;-0.40;100.00;98759.06;109604;1279;22658;-68
2023/02/01 03:23:35;;;;;;;18.20;7.20;;;;;;;-0.39;100.00;98754.52;109579;1279;22427;-68
2023/02/01 03:26:05;;;;;;;15.60;6.80;;;;;;;-0.32;100.00;98751.51;109481;1286;22239;-67
2023/02/01 03:28:33;;;;;;;14.00;6.30;;;;;;;-0.25;100.00;98749.55;109649;1286;22589;-67
2023/02/01 03:31:01;;;;;;;14.90;6.80;;;;;;;-0.26;100.00;98750.81;109557;1280;23252;-69
2023/02/01 03:33:31;;;;;;;18.90;8.00;;;;;;;-0.32;100.00;98751.46;109446;1287;22268;-67
2023/02/01 03:36:30;;;;;;;17.20;7.50;;;;;;;-0.31;100.00;98748.45;107343;1283;22538;-67
2023/02/01 03:39:02;;;;;;;15.60;7.40;;;;;;;-0.26;100.00;98744.72;106506;1287;22589;-67
2023/02/01 03:41:45;;;;;;;15.50;7.20;;;;;;;-0.30;100.00;98744.89;106787;1285;25444;-67
2023/02/01 03:44:17;;;;;;;14.40;7.10;;;;;;;-0.32;100.00;98744.60;106874;1286;22539;-67
2023/02/01 03:46:53;;;;;;;16.00;6.50;;;;;;;-0.30;100.00;98742.79;106786;1285;25101;-67
2023/02/01 03:49:25;;;;;;;14.70;6.00;;;;;;;-0.26;100.00;98741.30;106776;1286;25382;-67
2023/02/01 03:51:53;;;;;;;13.80;5.70;;;;;;;-0.27;100.00;98738.11;106576;1286;25392;-67
2023/02/01 03:54:22;;;;;;;15.00;5.50;;;;;;;-0.30;100.00;98737.86;106728;1282;23756;-66
2023/02/01 03:56:50;;;;;;;14.60;5.40;;;;;;;-0.28;100.00;98736.10;106661;1287;25463;-67
2023/02/01 03:59:18;;;;;;;12.60;5.00;;;;;;;-0.23;100.00;98739.23;106718;1287;22555;-67
2023/02/01 04:01:47;;;;;;;12.30;4.40;;;;;;;-0.20;100.00;98741.46;106709;1286;22553;-67
2023/02/01 04:04:19;;;;;;;14.30;5.40;;;;;;;-0.20;100.00;98743.31;106637;1286;24304;-67
2023/02/01 04:06:51;;;;;;;13.40;5.70;;;;;;;-0.21;100.00;98736.04;106599;1287;26248;-66
2023/02/01 04:09:20;;;;;;;13.10;5.30;;;;;;;-0.20;100.00;98739.57;106748;1280;23537;-67
2023/02/01 04:11:48;;;;;;;17.10;5.10;;;;;;;-0.15;100.00;98738.02;106661;1285;26647;-67
2023/02/01 04:14:17;;;;;;;11.80;4.50;;;;;;;-0.09;100.00;98734.97;106750;1284;22538;-67
2023/02/01 04:16:45;;;;;;;13.30;4.80;;;;;;;-0.11;100.00;98734.21;106783;1282;23022;-67
2023/02/01 04:19:14;;;;;;;12.90;4.90;;;;;;;-0.16;100.00;98735.40;109644;1286;23105;-68
2023/02/01 04:21:42;;;;;;;11.50;4.80;;;;;;;-0.16;100.00;98740.83;109670;1286;23041;-68
2023/02/01 04:24:11;;;;;;;13.20;5.10;;;;;;;-0.14;100.00;98740.76;109669;1286;22979;-68
2023/02/01 04:26:39;;;;;;;12.10;5.50;;;;;;;-0.13;100.00;98751.70;109658;1284;22232;-67
2023/02/01 04:29:09;;;;;;;13.90;5.30;;;;;;;-0.19;100.00;98750.55;109664;1286;22293;-67
2023/02/01 04:31:37;;;;;;;14.10;5.20;;;;;;;-0.16;100.00;98753.71;109654;1286;22231;-68
2023/02/01 04:34:05;;;;;;;15.60;5.90;;;;;;;-0.10;100.00;98753.09;110092;1279;22922;-68
2023/02/01 04:36:34;;;;;;;14.10;5.90;;;;;;;-0.10;100.00;98752.85;110069;1279;23166;-68
2023/02/01 04:39:02;;;;;;;11.30;4.60;;;;;;;-0.11;100.00;98750.68;110033;1273;22200;-67
2023/02/01 04:41:31;;;;;;;12.60;5.50;;;;;;;-0.06;100.00;98747.52;107393;1280;24223;-67
2023/02/01 04:43:59;;;;;;;10.40;4.90;;;;;;;-0.00;100.00;98747.44;107192;1280;23236;-67
2023/02/01 04:46:27;;;;;;;14.00;5.50;;;;;;;-0.01;100.00;98751.08;107296;1279;22527;-68
2023/02/01 04:48:56;;;;;;;16.90;6.20;;;;;;;-0.05;100.00;98751.08;107245;1279;25370;-67
2023/02/01 04:51:25;;;;;;;13.10;5.10;;;;;;;-0.09;100.00;98747.08;107117;1280;22617;-67
2023/02/01 04:53:55;;;;;;;14.90;5.80;;;;;;;-0.06;100.00;98746.01;107158;1280;25522;-66
2023/02/01 04:56:25;;;;;;;17.70;6.00;;;;;;;-0.04;100.00;98741.63;107267;1280;22589;-67
2023/02/01 04:58:53;;;;;;;15.70;6.10;;;;;;;-0.05;100.00;98742.98;107648;1280;26627;-67
2023/02/01 05:01:22;;;;;;;13.30;6.80;;;;;;;-0.11;100.00;98741.12;107292;1256;22530;-67
2023/02/01 05:03:51;;;;;;;17.10;7.30;;;;;;;-0.17;100.00;98745.03;107148;1280;22536;-67
2023/02/01 05:06:19;;;;;;;21.00;6.90;;;;;;;-0.15;100.00;98744.59;107103;1274;24378;-67
2023/02/01 05:08:47;;;;;;;15.50;6.70;;;;;;;-0.13;100.00;98742.44;107073;1279;22602;-67
2023/02/01 05:14:03;;;;;;;17.70;8.50;;;;;;;-0.21;100.00;98739.39;107187;1279;26678;-67
2023/02/01 05:16:31;;;;;;;17.10;7.50;;;;;;;-0.30;100.00;98733.48;107175;1278;25424;-67
2023/02/01 05:18:59;;;;;;;14.40;6.80;;;;;;;-0.29;100.00;98738.65;107330;1272;22533;-67
2023/02/01 05:21:28;;;;;;;16.10;7.70;;;;;;;-0.27;100.00;98729.29;110124;1278;23366;-69
2023/02/01 05:24:09;;;;;;;19.00;8.40;;;;;;;-0.30;100.00;98728.47;107799;1274;25328;-68
2023/02/01 05:26:41;;;;;;;15.90;7.90;;;;;;;-0.36;100.00;98728.47;107370;1272;25419;-68
2023/02/01 05:29:10;;;;;;;16.50;7.80;;;;;;;-0.41;100.00;98728.83;107275;1278;25365;-68
2023/02/01 05:31:38;;;;;;;19.20;8.70;;;;;;;-0.41;100.00;98732.12;107286;1272;22527;-69
2023/02/01 05:34:07;;;;;;;18.50;8.20;;;;;;;-0.39;100.00;98735.26;107221;1278;22653;-69
2023/02/01 05:36:35;;;;;;;18.10;8.40;;;;;;;-0.41;100.00;98738.52;107394;1272;23307;-69
2023/02/01 05:39:04;;;;;;;19.00;8.80;;;;;;;-0.47;100.00;98744.50;110093;1278;22920;-68
2023/02/01 05:41:32;;;;;;;20.10;8.70;;;;;;;-0.53;100.00;98743.32;110211;1278;22726;-67
2023/02/01 05:44:00;;;;;;;15.80;8.20;;;;;;;-0.53;100.00;98739.54;110142;1272;23008;-67
2023/02/01 05:46:29;;;;;;;17.70;8.30;;;;;;;-0.49;100.00;98738.20;110166;1278;22212;-68
2023/02/01 05:48:57;;;;;;;18.70;8.40;;;;;;;-0.52;100.00;98735.17;110182;1275;22341;-67
2023/02/01 05:51:25;;;;;;;20.20;8.40;;;;;;;-0.56;100.00;98733.24;110207;1278;22273;-68
2023/02/01 05:53:54;;;;;;;15.50;7.50;;;;;;;-0.52;100.00;98734.76;110175;1278;23416;-68
2023/02/01 05:56:22;;;;;;;17.90;8.30;;;;;;;-0.48;100.00;98733.52;110150;1278;22933;-68
2023/02/01 05:58:51;;;;;;;14.80;8.20;;;;;;;-0.49;100.00;98735.42;110179;1278;22227;-68
2023/02/01 06:01:19;;;;;;;17.20;7.90;;;;;;;-0.51;100.00;98731.52;110196;1278;23116;-67
2023/02/01 06:03:47;;;;;;;17.50;8.40;;;;;;;-0.47;100.00;98733.17;110187;1278;22203;-68
2023/02/01 06:06:16;;;;;;;15.20;7.20;;;;;;;-0.41;100.00;98723.98;110174;1272;22244;-68
2023/02/01 06:08:44;;;;;;;14.40;7.50;;;;;;;-0.38;100.00;98720.64;110200;1278;22410;-69
2023/02/01 06:11:13;;;;;;;18.20;7.70;;;;;;;-0.40;100.00;98716.15;110214;1278;22675;-69
2023/02/01 06:14:00;;;;;;;14.00;7.50;;;;;;;-0.39;100.00;98718.19;110185;1278;23390;-69
2023/02/01 06:16:28;;;;;;;14.90;7.10;;;;;;;-0.33;100.00;98715.44;109361;1278;23312;-68
2023/02/01 06:18:56;;;;;;;17.50;7.50;;;;;;;-0.25;100.00;98717.52;107293;1278;22589;-66
2023/02/01 06:21:24;;;;;;;15.20;7.30;;;;;;;-0.22;100.00;98713.96;107787;1278;22924;-68
2023/02/01 06:23:53;;;;;;;18.00;7.70;;;;;;;-0.23;100.00;98717.57;107156;1256;25193;-67
2023/02/01 06:26:22;;;;;;;15.90;7.20;;;;;;;-0.24;100.00;98715.93;107028;1278;25379;-67
2023/02/01 06:28:51;;;;;;;16.80;7.50;;;;;;;-0.20;100.00;98714.50;107170;1278;22788;-67
2023/02/01 06:31:20;;;;;;;19.00;7.90;;;;;;;-0.14;100.00;98714.51;107426;1278;25290;-67
2023/02/01 06:33:48;;;;;;;17.30;7.90;;;;;;;-0.14;100.00;98716.59;107376;1278;22755;-67
2023/02/01 06:36:20;;;;;;;15.40;7.50;;;;;;;-0.13;100.00;98714.62;107269;1278;22599;-67
2023/02/01 06:38:49;;;;;;;17.30;7.50;;;;;;;-0.07;100.00;98711.20;107374;1278;22596;-67
2023/02/01 06:41:17;;;;;;;16.50;7.40;;;;;;;-0.00;100.00;98714.23;107348;1278;22644;-68
2023/02/01 06:43:46;;;;;;;18.50;7.90;;;;;;;0.05;100.00;98720.45;107291;1278;25331;-67
2023/02/01 06:46:15;;;;;;;15.50;7.70;;;;;;;0.04;100.00;98719.52;107337;1278;26599;-67
2023/02/01 06:48:43;;;;;;;16.40;7.80;;;;;;;0.04;100.00;98718.00;107255;1278;24089;-68
2023/02/01 06:51:21;;;;;;;13.40;6.40;;;;;;;0.12;100.00;98717.30;107218;1278;22583;-67
2023/02/01 06:53:50;;;;;;;16.00;7.70;;;;;;;0.21;100.00;98714.64;107437;1278;25629;-69
2023/02/01 06:56:19;;;;;;;16.30;8.50;;;;;;;0.22;100.00;98711.50;107206;1278;22524;-68
2023/02/01 06:58:51;;;;;;;17.90;7.70;;;;;;;0.22;100.00;98709.94;107340;1278;24289;-68
2023/02/01 07:01:19;;;;;;;15.20;7.10;;;;;;;0.27;100.00;98709.73;107500;1276;23885;-69
2023/02/01 07:03:49;;;;;;;17.60;7.00;;;;;;;0.33;100.00;98706.21;107350;1275;25370;-68
2023/02/01 07:06:18;;;;;;;14.30;7.10;;;;;;;0.39;100.00;98703.42;107357;1276;24269;-69
2023/02/01 07:08:50;;;;;;;16.70;7.80;;;;;;;0.39;100.00;98699.15;107641;1275;25474;-69
2023/02/01 07:11:18;;;;;;;19.30;8.60;;;;;;;0.37;100.00;98694.65;107674;1275;24336;-68
2023/02/01 07:13:47;;;;;;;18.20;8.10;;;;;;;0.35;100.00;98696.22;107647;1275;25378;-69
2023/02/01 07:16:17;;;;;;;16.50;7.80;;;;;;;0.41;100.00;98694.85;107550;1275;22519;-69
2023/02/01 07:18:45;;;;;;;17.80;8.70;;;;;;;0.49;100.00;98695.64;107610;1276;22602;-69
2023/02/01 07:21:13;;;;;;;18.90;7.80;;;;;;;0.52;100.00;98693.24;107407;1276;25249;-68
2023/02/01 07:23:42;;;;;;;16.20;7.50;;;;;;;0.49;100.00;98686.58;107352;1276;25338;-68
2023/02/01 07:26:12;;;;;;;18.40;7.60;;;;;;;0.50;100.00;98687.67;107649;1276;23361;-69
2023/02/01 07:28:41;;;;;;;17.30;7.30;;;;;;;0.54;100.00;98684.92;107772;1275;23092;-68
2023/02/01 07:31:11;;;;;;;16.30;8.00;;;;;;;0.60;100.00;98685.44;107608;1276;23049;-69
2023/02/01 07:33:39;;;;;;;20.20;8.40;;;;;;;0.65;100.00;98686.84;107613;1276;22526;-69
2023/02/01 07:36:11;;;;;;;18.40;8.40;;;;;;;0.69;100.00;98692.41;107571;1273;23805;-68
2023/02/01 07:38:39;;;;;;;17.30;7.90;;;;;;;0.75;100.00;98687.06;107401;1275;25373;-69
2023/02/01 07:41:08;;;;;;;18.60;8.70;;;;;;;0.90;100.00;98689.81;107399;1276;22533;-69
2023/02/01 10:26:20;;;;;;;23.10;11.70;;;;;;;0.01;100.00;98509.79;104541;1308;546217;-67
2023/02/01 10:28:56;;;;;;;17.80;10.00;;;;;;;0.15;100.00;98511.91;106986;1288;22559;-68
2023/02/01 10:31:29;;;;;;;17.30;9.50;;;;;;;0.33;100.00;98510.75;106740;1288;23051;-68
2023/02/01 10:33:59;;;;;;;20.70;11.60;;;;;;;0.47;100.00;98509.45;109535;1288;23039;-68
2023/02/01 10:36:40;;;;;;;15.90;8.90;;;;;;;0.61;100.00;98507.69;109484;1289;22732;-68
2023/02/01 10:39:09;;;;;;;15.10;7.10;;;;;;;0.75;100.00;98503.30;109362;1286;211280;-68
2023/02/01 10:41:39;;;;;;;17.40;7.20;;;;;;;0.80;100.00;98502.28;109445;1287;22197;-68
2023/02/01 10:44:17;;;;;;;13.20;7.00;;;;;;;0.83;100.00;98501.05;109552;1287;22453;-68
2023/02/01 10:46:45;;;;;;;16.00;7.70;;;;;;;0.88;100.00;98498.69;109638;1286;22853;-69
2023/02/01 10:50:05;;;;;;;16.00;7.20;;;;;;;0.92;100.00;98494.95;109661;1287;22375;-69
2023/02/01 10:52:38;;;;;;;13.90;8.50;;;;;;;0.90;100.00;98492.06;109325;1287;22729;-69
2023/02/01 10:55:25;;;;;;;15.20;7.80;;;;;;;0.90;100.00;98492.54;109651;1286;22783;-68
2023/02/01 10:57:56;;;;;;;14.60;7.20;;;;;;;0.99;100.00;98489.35;109675;1286;22436;-68
2023/02/01 11:00:25;;;;;;;17.10;8.10;;;;;;;1.05;100.00;98486.73;109661;1286;22213;-68
2023/02/01 11:02:53;;;;;;;17.90;7.60;;;;;;;1.02;100.00;98485.06;109665;1286;22353;-68
2023/02/01 11:05:22;;;;;;;18.20;8.40;;;;;;;1.02;100.00;98479.91;109617;1287;22953;-68
2023/02/01 11:07:54;;;;;;;14.50;6.60;;;;;;;1.11;100.00;98478.25;109619;1287;22369;-68
2023/02/01 11:10:40;;;;;;;20.20;8.20;;;;;;;1.22;100.00;98477.84;109624;1287;22229;-68
2023/02/01 11:13:15;;;;;;;15.60;7.20;;;;;;;1.29;100.00;98471.92;109661;1287;23250;-68
2023/02/01 11:15:45;;;;;;;13.30;6.40;;;;;;;1.33;100.00;98474.19;109679;1287;22955;-67
2023/02/01 11:18:18;;;;;;;15.00;6.70;;;;;;;1.45;100.00;98473.85;109650;1287;22290;-68
2023/02/01 11:20:49;;;;;;;15.30;7.70;;;;;;;1.55;100.00;98475.45;109653;1287;22387;-68
2023/02/01 11:23:22;;;;;;;13.90;8.10;;;;;;;1.53;100.00;98472.19;109642;1286;22842;-67
2023/02/01 11:25:55;;;;;;;14.10;7.80;;;;;;;1.48;100.00;98468.59;109645;1286;22191;-68
2023/02/01 11:28:25;;;;;;;11.30;6.50;;;;;;;1.48;100.00;98467.14;109637;1287;22270;-67
2023/02/01 11:30:54;;;;;;;12.30;6.50;;;;;;;1.49;100.00;98461.30;109419;1287;22443;-68
2023/02/01 11:33:29;;;;;;;15.00;7.20;;;;;;;1.47;100.00;98460.95;109597;1287;22413;-69
2023/02/01 11:35:58;;;;;;;13.00;7.20;;;;;;;1.46;100.00;98461.96;109642;1287;23111;-68
2023/02/01 11:38:30;;;;;;;13.60;6.10;;;;;;;1.53;100.00;98458.99;109641;1287;22437;-68
2023/02/01 11:41:22;;;;;;;11.40;6.00;;;;;;;1.58;100.00;98455.86;109629;1287;22212;-68
2023/02/01 11:43:55;;;;;;;12.60;6.40;;;;;;;1.50;100.00;98457.20;109608;1286;22483;-67
2023/02/01 11:46:31;;;;;;;13.50;7.70;;;;;;;1.37;100.00;98452.48;109364;1287;26176;-68
2023/02/01 11:49:21;;;;;;;19.20;11.50;;;;;;;1.28;100.00;98455.70;106690;1287;24217;-68
2023/02/01 11:52:12;;;;;;;16.50;9.90;;;;;;;1.33;100.00;98449.77;106933;1287;25315;-66
2023/02/01 11:55:08;;;;;;;14.80;7.90;;;;;;;1.35;100.00;98454.48;106853;1287;25376;-68
2023/02/01 11:57:52;;;;;;;17.20;9.80;;;;;;;1.26;100.00;98452.73;106962;1287;24172;-67
2023/02/01 12:00:27;;;;;;;16.50;8.80;;;;;;;1.17;100.00;98451.61;107030;1287;25274;-68
2023/02/01 12:02:55;;;;;;;15.10;8.10;;;;;;;1.18;100.00;98448.42;106880;1287;25380;-67
2023/02/01 12:05:50;;;;;;;13.30;7.20;;;;;;;1.20;100.00;98442.97;107015;1279;24244;-67
2023/02/01 12:08:41;;;;;;;16.40;9.50;;;;;;;1.24;100.00;98445.83;107246;1280;23318;-68
2023/02/01 12:11:18;;;;;;;14.20;8.20;;;;;;;1.24;100.00;98443.56;107368;1279;25046;-67
2023/02/01 12:14:02;;;;;;;13.70;8.80;;;;;;;1.23;100.00;98442.98;107396;1279;22643;-67
2023/02/01 12:16:56;;;;;;;14.90;7.70;;;;;;;1.30;100.00;98443.34;107240;1279;23929;-67
2023/02/01 12:19:33;;;;;;;13.70;7.50;;;;;;;1.30;100.00;98441.43;107291;1279;22560;-68
2023/02/01 12:22:02;;;;;;;;;;;;;;;1.26;100.00;98441.66;107459;1279;23265;-67
2023/02/01 12:25:05;;;;;;;11.80;7.10;;;;;;;1.22;100.00;98437.96;107501;1279;25337;-67
2023/02/01 12:27:56;;;;;;;12.10;7.10;;;;;;;1.20;100.00;98437.50;107407;1279;25411;-67
2023/02/01 12:30:36;;;;;;;12.60;7.30;;;;;;;1.21;100.00;98438.27;107294;1279;25351;-68
2023/02/01 12:33:12;;;;;;;8.70;5.90;;;;;;;1.18;100.00;98436.45;107332;1279;23380;-68
2023/02/01 12:36:07;;;;;;;10.40;6.50;;;;;;;1.20;100.00;98439.75;107288;1279;23262;-67
2023/02/01 12:38:49;;;;;;;8.30;5.20;;;;;;;1.22;100.00;98440.80;107229;1279;22590;-67
2023/02/01 12:41:40;;;;;;;11.70;6.90;;;;;;;1.21;100.00;98438.23;107132;1279;22979;-67
2023/02/01 12:44:17;;;;;;;13.40;9.30;;;;;;;1.16;100.00;98436.64;108863;1279;23112;-68
2023/02/01 12:46:52;;;;;;;13.10;8.50;;;;;;;1.08;100.00;98431.01;109914;1279;22195;-68
2023/02/01 12:49:28;;;;;;;11.30;6.00;;;;;;;1.13;100.00;98432.71;109996;1279;22263;-68
2023/02/01 12:52:02;;;;;;;8.40;5.20;;;;;;;1.18;100.00;98434.10;108247;1279;22579;-68
2023/02/01 12:54:58;;;;;;;11.10;5.90;;;;;;;1.21;100.00;98434.99;107502;1279;24241;-68
2023/02/01 12:57:30;;;;;;;13.10;6.90;;;;;;;1.17;100.00;98434.23;107362;1279;23289;-68
2023/02/01 13:00:09;;;;;;;10.20;6.50;;;;;;;1.18;100.00;98435.27;107182;1279;22530;-67
2023/02/01 13:02:42;;;;;;;11.70;7.20;;;;;;;1.24;100.00;98435.56;108817;1279;22530;-67
2023/02/01 13:05:18;;;;;;;11.30;6.90;;;;;;;1.22;100.00;98435.23;108896;1279;25777;-67
2023/02/01 13:08:23;;;;;;;11.60;7.20;;;;;;;1.17;100.00;98436.38;107277;1279;22599;-67
2023/02/01 13:11:14;;;;;;;11.80;7.10;;;;;;;1.20;100.00;98433.48;107382;1279;22529;-66
2023/02/01 13:13:58;;;;;;;15.30;8.40;;;;;;;1.21;100.00;98438.80;107914;1279;22633;-67
2023/02/01 13:16:29;;;;;;;12.90;7.40;;;;;;;1.16;100.00;98437.76;107601;1279;22561;-68
2023/02/01 13:19:05;;;;;;;10.00;6.50;;;;;;;1.14;100.00;98443.94;107453;1272;25315;-66
2023/02/01 13:21:35;;;;;;;10.60;6.90;;;;;;;1.18;100.00;98440.09;107273;1279;22651;-66
2023/02/01 13:24:03;;;;;;;9.90;6.60;;;;;;;1.18;100.00;98441.77;106967;1279;25324;-67
2023/02/01 13:26:32;;;;;;;11.60;6.90;;;;;;;1.15;100.00;98446.95;106937;1279;22553;-67
2023/02/01 13:29:07;;;;;;;10.00;6.10;;;;;;;1.13;100.00;98442.70;107124;1279;25493;-67
2023/02/01 13:31:57;;;;;;;11.10;6.50;;;;;;;1.13;100.00;98446.34;107372;1279;22564;-67
2023/02/01 13:34:56;;;;;;;10.40;6.50;;;;;;;1.15;100.00;98445.36;107460;1279;25451;-68
2023/02/01 13:37:31;;;;;;;13.30;8.40;;;;;;;1.07;100.00;98445.44;107383;1279;24291;-67
2023/02/01 13:40:08;;;;;;;10.40;6.00;;;;;;;0.97;100.00;98447.95;107435;1279;24378;-68
2023/02/01 13:42:58;;;;;;;9.80;6.30;;;;;;;0.91;100.00;98452.49;107415;1279;22550;-68
2023/02/01 13:45:31;;;;;;;9.10;6.00;;;;;;;0.88;100.00;98454.80;107391;1279;27572;-68
2023/02/01 13:48:02;;;;;;;11.50;6.30;;;;;;;0.86;100.00;98453.86;107292;1279;22523;-67
2023/02/01 13:50:38;;;;;;;8.80;5.70;;;;;;;0.83;100.00;98457.75;109977;1279;22281;-67
2023/02/01 13:53:12;;;;;;;9.30;5.90;;;;;;;0.86;100.00;98454.77;109968;1279;22916;-67
2023/02/01 13:55:44;;;;;;;33.60;25.30;;;;;;;0.95;100.00;98454.92;110065;1279;22329;-67
2023/02/01 13:58:28;;;;;;;19.50;15.20;;;;;;;1.00;100.00;98457.48;110012;1279;22273;-68
2023/02/01 14:01:23;;;;;;;15.40;13.80;;;;;;;0.99;100.00;98457.40;109972;1279;22271;-69
2023/02/01 14:03:57;;;;;;;11.10;7.30;;;;;;;0.97;100.00;98458.55;109992;1279;22405;-68
2023/02/01 14:06:31;;;;;;;8.70;5.30;;;;;;;1.00;100.00;98460.91;109987;1279;22925;-69
2023/02/01 14:09:09;;;;;;;8.10;5.10;;;;;;;1.02;100.00;98457.63;110052;1279;22309;-68
2023/02/01 14:11:41;;;;;;;6.80;5.20;;;;;;;0.99;100.00;98465.23;110019;1279;22371;-68
2023/02/01 14:14:15;;;;;;;7.60;5.00;;;;;;;0.96;100.00;98461.11;110005;1279;22213;-68
2023/02/01 14:16:53;;;;;;;7.80;5.40;;;;;;;1.03;100.00;98462.83;110024;1279;22199;-69
2023/02/01 14:19:31;;;;;;;7.20;4.90;;;;;;;1.09;100.00;98464.70;110046;1279;23996;-69
2023/02/01 14:22:01;;;;;;;8.10;4.90;;;;;;;1.10;100.00;98468.67;110021;1279;22295;-69
2023/02/01 14:24:35;;;;;;;8.60;5.60;;;;;;;1.04;100.00;98467.83;110041;1279;22427;-69
2023/02/01 14:27:13;;;;;;;7.70;5.60;;;;;;;0.99;100.00;98464.11;109991;1279;22226;-69
2023/02/01 14:29:50;;;;;;;7.10;4.60;;;;;;;1.04;100.00;98468.38;110028;1279;23061;-69
2023/02/01 14:32:22;;;;;;;7.00;4.40;;;;;;;1.08;100.00;98471.87;110028;1279;23023;-68
2023/02/01 14:34:54;;;;;;;9.40;5.10;;;;;;;1.08;100.00;98471.29;110021;1279;22275;-69
2023/02/01 14:37:24;;;;;;;10.90;5.90;;;;;;;1.02;100.00;98474.93;110006;1279;22995;-68
2023/02/01 14:39:55;;;;;;;10.80;6.90;;;;;;;0.99;100.00;98480.12;110049;1279;22303;-69
2023/02/01 14:42:42;;;;;;;12.70;8.30;;;;;;;1.02;100.00;98480.55;110019;1279;23000;-69
2023/02/01 14:45:17;;;;;;;9.30;6.50;;;;;;;1.06;100.00;98485.89;110062;1279;22073;-68
2023/02/01 14:47:47;;;;;;;8.10;5.80;;;;;;;1.06;100.00;98486.85;109732;1279;22606;-68
2023/02/01 14:50:23;;;;;;;7.20;5.40;;;;;;;1.05;100.00;98488.71;107357;1279;24263;-68
2023/02/01 14:53:13;;;;;;;10.00;5.60;;;;;;;1.09;100.00;98494.69;107403;1279;22541;-68
2023/02/01 14:56:13;;;;;;;7.70;5.40;;;;;;;1.11;100.00;98498.02;107488;1279;23300;-68
2023/02/01 14:59:01;;;;;;;8.90;6.10;;;;;;;1.09;100.00;98498.36;107373;1279;22630;-68
2023/02/01 15:01:34;;;;;;;9.40;6.20;;;;;;;1.01;100.00;98504.92;107269;1279;26715;-68
2023/02/01 15:04:18;;;;;;;10.00;7.60;;;;;;;1.03;100.00;98505.66;107276;1279;23361;-68
2023/02/01 15:06:48;;;;;;;14.60;10.30;;;;;;;1.06;100.00;98507.59;107518;1279;26507;-68
2023/02/01 15:09:20;;;;;;;23.70;17.80;;;;;;;1.02;100.00;98508.75;107306;1279;25473;-68
2023/02/01 15:12:05;;;;;;;27.80;18.40;;;;;;;0.97;100.00;98513.05;107454;1279;23111;-68
2023/02/01 15:14:40;;;;;;;24.80;17.30;;;;;;;0.99;100.00;98516.96;107405;1276;25332;-67
2023/02/01 15:17:33;;;;;;;12.20;8.00;;;;;;;1.02;100.00;98518.19;107435;1279;25332;-68
2023/02/01 15:20:12;;;;;;;32.80;22.60;;;;;;;1.02;100.00;98521.93;107354;1279;23064;-67
2023/02/01 15:22:40;;;;;;;11.90;8.90;;;;;;;0.98;100.00;98524.98;107291;1272;22557;-68
2023/02/01 15:25:19;;;;;;;12.30;7.80;;;;;;;1.02;100.00;98522.42;107363;1279;23600;-68
2023/02/01 15:27:49;;;;;;;10.10;6.80;;;;;;;1.08;100.00;98529.55;110076;1279;22910;-68
2023/02/01 15:30:21;;;;;;;12.20;8.60;;;;;;;1.10;100.00;98533.33;110013;1279;22211;-68
2023/02/01 15:32:50;;;;;;;11.80;8.20;;;;;;;1.10;100.00;98535.38;110046;1279;22437;-69
2023/02/01 15:35:54;;;;;;;12.80;8.80;;;;;;;1.10;100.00;98538.11;110058;1279;22672;-69
2023/02/01 15:38:26;;;;;;;15.30;11.90;;;;;;;1.18;100.00;98539.92;109759;1285;22998;-68
2023/02/01 15:41:20;;;;;;;10.60;7.80;;;;;;;1.21;100.00;98542.45;110021;1279;22207;-69
2023/02/01 19:06:00;;;;;;;25.40;13.30;;;;;;;-0.35;100.00;98542.15;104304;1308;544961;-68
2023/02/01 19:08:30;;;;;;;23.90;12.40;;;;;;;-0.19;100.00;98547.84;106812;1287;22572;-69
2023/02/01 19:10:59;;;;;;;21.30;10.20;;;;;;;-0.01;100.00;98554.16;106880;1288;23484;-68
2023/02/01 19:13:30;;;;;;;19.60;8.90;;;;;;;0.16;100.00;98561.92;106888;1288;22605;-68
2023/02/01 19:16:05;;;;;;;14.00;6.50;;;;;;;0.30;100.00;98554.80;109536;1285;22235;-68
2023/02/01 19:18:33;;;;;;;14.60;5.30;;;;;;;0.42;100.00;98553.83;109339;1284;234108;-69
2023/02/01 19:21:07;;;;;;;14.40;6.30;;;;;;;0.51;100.00;98556.82;109853;1282;23247;-68
2023/02/01 19:23:37;;;;;;;11.90;5.90;;;;;;;0.59;100.00;98558.04;109890;1282;22448;-68
2023/02/01 19:26:10;;;;;;;13.10;5.90;;;;;;;0.61;100.00;98553.36;109831;1283;22396;-69
2023/02/01 19:28:38;;;;;;;11.30;5.10;;;;;;;0.63;100.00;98555.52;109872;1279;22223;-69
2023/02/01 19:31:07;;;;;;;11.40;5.30;;;;;;;0.68;100.00;98555.41;109867;1282;23008;-69
2023/02/01 19:33:35;;;;;;;12.60;5.00;;;;;;;0.73;100.00;98553.88;109876;1283;22198;-69
2023/02/01 19:36:04;;;;;;;13.40;5.50;;;;;;;0.73;100.00;98551.16;109919;1276;22262;-69
2023/02/01 19:38:33;;;;;;;11.60;4.50;;;;;;;0.79;100.00;98556.15;109821;1280;22469;-69
2023/02/01 19:41:00;;;;;;;10.90;4.70;;;;;;;0.85;100.00;98556.27;109901;1283;22227;-68
2023/02/01 19:43:28;;;;;;;11.00;4.20;;;;;;;0.89;100.00;98556.35;109893;1284;22255;-69
2023/02/01 19:45:57;;;;;;;10.80;4.50;;;;;;;0.94;100.00;98555.39;109893;1283;22341;-68
2023/02/01 19:48:25;;;;;;;11.00;4.80;;;;;;;0.96;100.00;98556.70;109903;1283;22230;-68
2023/02/01 19:50:54;;;;;;;15.20;4.80;;;;;;;0.94;100.00;98558.05;109890;1283;22361;-69
2023/02/01 19:53:25;;;;;;;14.30;3.90;;;;;;;0.99;100.00;98557.45;109926;1282;22912;-68
2023/02/01 19:55:56;;;;;;;12.10;4.70;;;;;;;1.05;100.00;98556.88;109872;1276;22396;-68
2023/02/01 19:58:25;;;;;;;9.90;4.10;;;;;;;1.06;100.00;98559.70;109863;1283;22339;-69
2023/02/01 20:00:54;;;;;;;9.30;3.90;;;;;;;1.05;100.00;98558.11;109857;1279;22943;-68
2023/02/01 20:03:23;;;;;;;12.10;3.80;;;;;;;1.07;100.00;98555.75;109886;1283;23001;-68
2023/02/01 20:05:54;;;;;;;10.10;4.10;;;;;;;1.15;100.00;98558.58;109907;1283;22940;-69
2023/02/01 20:08:22;;;;;;;12.80;4.10;;;;;;;1.16;100.00;98558.82;109787;1282;22298;-69
2023/02/01 20:10:50;;;;;;;12.80;3.80;;;;;;;1.16;100.00;98557.78;109859;1282;22276;-69
2023/02/01 20:13:19;;;;;;;10.00;4.10;;;;;;;1.22;100.00;98558.70;109880;1283;22269;-68
2023/02/01 20:15:48;;;;;;;10.80;4.00;;;;;;;1.27;100.00;98557.58;109863;1281;22443;-69